Time,TemperatureF,DewpointF,PressureIn,WindDirection,WindDirectionDegrees,WindSpeedMPH,WindSpeedGustMPH,Humidity,HourlyPrecipIn,Conditions,Clouds,dailyrainin,SoftwareType,DateUTC
2013-03-25 00:07:00,36.1,31.0,29.79,SSE,153,1.0,3.0,81,0.00,,,0.00,weatherlink.com 1.10,2013-03-25 04:07:00,
2013-03-25 00:22:00,35.9,31.0,29.79,SSE,153,1.0,2.0,82,0.00,,,0.00,weatherlink.com 1.10,2013-03-25 04:22:00,
2013-03-25 00:37:00,35.7,31.0,29.79,SSE,153,1.0,2.0,82,0.00,,,0.00,weatherlink.com 1.10,2013-03-25 04:37:00,
2013-03-25 00:52:00,35.4,30.0,29.78,SSE,153,1.0,2.0,82,0.00,,,0.00,weatherlink.com 1.10,2013-03-25 04:52:00,
2013-03-25 01:07:00,35.0,30.0,29.77,SSE,153,2.0,3.0,83,0.00,,,0.00,weatherlink.com 1.10,2013-03-25 05:07:00,
2013-03-25 01:22:00,34.8,30.0,29.77,East,90,1.0,3.0,84,0.00,,,0.00,weatherlink.com 1.10,2013-03-25 05:22:00,
2013-03-25 01:37:00,34.6,31.0,29.76,East,90,2.0,3.0,85,0.00,,,0.00,weatherlink.com 1.10,2013-03-25 05:37:00,
2013-03-25 01:52:00,34.6,31.0,29.76,East,90,1.0,3.0,85,0.00,,,0.00,weatherlink.com 1.10,2013-03-25 05:52:00,
2013-03-25 02:07:00,34.9,31.0,29.76,NE,36,2.0,4.0,86,0.00,,,0.00,weatherlink.com 1.10,2013-03-25 06:07:00,
2013-03-25 02:22:00,35.2,31.0,29.76,NE,36,3.0,4.0,86,0.00,,,0.00,weatherlink.com 1.10,2013-03-25 06:22:00,
2013-03-25 02:37:00,35.1,31.0,29.76,NE,36,3.0,5.0,86,0.00,,,0.00,weatherlink.com 1.10,2013-03-25 06:37:00,
2013-03-25 02:52:00,35.0,31.0,29.75,NE,35,4.0,5.0,86,0.00,,,0.00,weatherlink.com 1.10,2013-03-25 06:52:00,
2013-03-25 03:07:00,35.0,31.0,29.74,NNE,22,3.0,6.0,86,0.00,,,0.00,weatherlink.com 1.10,2013-03-25 07:07:00,
2013-03-25 03:22:00,35.0,31.0,29.74,NNE,21,3.0,7.0,86,0.00,,,0.00,weatherlink.com 1.10,2013-03-25 07:22:00,
2013-03-25 03:37:00,34.9,31.0,29.73,NNE,32,2.0,6.0,86,0.00,,,0.00,weatherlink.com 1.10,2013-03-25 07:37:00,
2013-03-25 03:52:00,34.6,31.0,29.72,NNE,23,5.0,7.0,86,0.00,,,0.00,weatherlink.com 1.10,2013-03-25 07:52:00,
2013-03-25 04:07:00,34.6,31.0,29.72,NNE,15,3.0,6.0,86,0.00,,,0.00,weatherlink.com 1.10,2013-03-25 08:07:00,
2013-03-25 04:22:00,34.7,31.0,29.71,NE,35,4.0,8.0,85,0.00,,,0.00,weatherlink.com 1.10,2013-03-25 08:22:00,
2013-03-25 04:37:00,34.8,30.0,29.70,NNE,26,3.0,9.0,84,0.00,,,0.00,weatherlink.com 1.10,2013-03-25 08:37:00,
2013-03-25 04:52:00,34.7,30.0,29.70,NE,39,7.0,7.0,84,0.00,,,0.00,weatherlink.com 1.10,2013-03-25 08:52:00,
2013-03-25 05:07:00,34.7,30.0,29.70,NNE,24,4.0,9.0,83,0.00,,,0.00,weatherlink.com 1.10,2013-03-25 09:07:00,
2013-03-25 05:22:00,34.6,30.0,29.70,NNE,24,2.0,10.0,83,0.00,,,0.00,weatherlink.com 1.10,2013-03-25 09:22:00,
2013-03-25 05:37:00,34.6,30.0,29.70,NNE,27,7.0,9.0,82,0.00,,,0.00,weatherlink.com 1.10,2013-03-25 09:37:00,
2013-03-25 05:52:00,34.7,29.0,29.70,NNE,25,5.0,7.0,81,0.00,,,0.00,weatherlink.com 1.10,2013-03-25 09:52:00,
2013-03-25 06:07:00,34.9,29.0,29.69,NE,40,7.0,10.0,80,0.00,,,0.00,weatherlink.com 1.10,2013-03-25 10:07:00,
2013-03-25 06:22:00,35.0,29.0,29.69,NE,49,6.0,10.0,79,0.00,,,0.00,weatherlink.com 1.10,2013-03-25 10:22:00,
2013-03-25 06:37:00,35.0,29.0,29.69,NNE,17,6.0,8.0,79,0.00,,,0.00,weatherlink.com 1.10,2013-03-25 10:37:00,
2013-03-25 06:52:00,35.2,29.0,29.69,NNE,20,10.0,12.0,77,0.00,,,0.00,weatherlink.com 1.10,2013-03-25 10:52:00,
2013-03-25 07:07:00,35.2,28.0,29.70,NNE,18,5.0,13.0,76,0.00,,,0.00,weatherlink.com 1.10,2013-03-25 11:07:00,
2013-03-25 07:23:00,35.3,28.0,29.70,NE,34,3.0,11.0,76,0.00,,,0.00,weatherlink.com 1.10,2013-03-25 11:23:00,
2013-03-25 07:38:00,35.5,28.0,29.69,ENE,57,5.0,14.0,75,0.00,,,0.00,weatherlink.com 1.10,2013-03-25 11:38:00,
2013-03-25 07:53:00,36.1,29.0,29.69,NNE,28,7.0,14.0,75,0.00,,,0.00,weatherlink.com 1.10,2013-03-25 11:53:00,
2013-03-25 08:08:00,36.7,29.0,29.69,NNE,24,10.0,17.0,75,0.00,,,0.00,weatherlink.com 1.10,2013-03-25 12:08:00,
2013-03-25 08:38:00,37.5,31.0,29.67,NNE,15,8.0,18.0,77,0.00,,,0.00,weatherlink.com 1.10,2013-03-25 12:38:00,
2013-03-25 08:53:00,37.7,31.0,29.66,NE,53,13.0,17.0,78,0.00,,,0.00,weatherlink.com 1.10,2013-03-25 12:53:00,
2013-03-25 09:08:00,38.1,32.0,29.65,NE,53,9.0,20.0,78,0.00,,,0.00,weatherlink.com 1.10,2013-03-25 13:08:00,
2013-03-25 09:23:00,38.7,32.0,29.64,NNE,18,5.0,17.0,78,0.00,,,0.00,weatherlink.com 1.10,2013-03-25 13:23:00,
2013-03-25 09:38:00,39.2,33.0,29.65,East,80,5.0,13.0,77,0.00,,,0.00,weatherlink.com 1.10,2013-03-25 13:38:00,
2013-03-25 09:53:00,39.7,32.0,29.65,NNE,29,9.0,16.0,75,0.00,,,0.00,weatherlink.com 1.10,2013-03-25 13:53:00,
2013-03-25 10:08:00,40.5,32.0,29.66,NE,44,9.0,13.0,73,0.00,,,0.00,weatherlink.com 1.10,2013-03-25 14:08:00,
2013-03-25 10:23:00,41.4,33.0,29.65,ENE,63,4.0,16.0,72,0.00,,,0.00,weatherlink.com 1.10,2013-03-25 14:23:00,
2013-03-25 10:38:00,41.9,33.0,29.65,ENE,57,11.0,13.0,71,0.00,,,0.00,weatherlink.com 1.10,2013-03-25 14:38:00,
2013-03-25 10:53:00,43.2,33.0,29.65,NE,40,10.0,16.0,67,0.00,,,0.00,weatherlink.com 1.10,2013-03-25 14:53:00,
2013-03-25 11:08:00,45.5,33.0,29.64,ENE,73,8.0,19.0,63,0.00,,,0.00,weatherlink.com 1.10,2013-03-25 15:08:00,
2013-03-25 11:23:00,45.5,33.0,29.62,ENE,76,13.0,19.0,63,0.00,,,0.00,weatherlink.com 1.10,2013-03-25 15:23:00,
2013-03-25 11:38:00,43.7,33.0,29.62,ENE,66,11.0,22.0,67,0.00,,,0.00,weatherlink.com 1.10,2013-03-25 15:38:00,
2013-03-25 11:53:00,43.3,34.0,29.61,East,82,8.0,22.0,69,0.00,,,0.00,weatherlink.com 1.10,2013-03-25 15:53:00,
2013-03-25 12:08:00,43.0,34.0,29.60,ENE,65,10.0,24.0,71,0.00,,,0.00,weatherlink.com 1.10,2013-03-25 16:08:00,
2013-03-25 12:24:00,43.1,34.0,29.59,ENE,78,14.0,20.0,70,0.00,,,0.00,weatherlink.com 1.10,2013-03-25 16:24:00,
2013-03-25 12:38:00,42.6,34.0,29.59,ENE,61,17.0,26.0,71,0.00,,,0.00,weatherlink.com 1.10,2013-03-25 16:38:00,
2013-03-25 12:54:00,42.4,34.0,29.59,East,85,10.0,21.0,72,0.00,,,0.00,weatherlink.com 1.10,2013-03-25 16:54:00,
2013-03-25 13:08:00,41.9,34.0,29.58,East,84,7.0,22.0,73,0.00,,,0.00,weatherlink.com 1.10,2013-03-25 17:08:00,
2013-03-25 13:24:00,41.7,34.0,29.57,East,79,13.0,21.0,73,0.00,,,0.00,weatherlink.com 1.10,2013-03-25 17:24:00,
2013-03-25 13:39:00,42.0,33.0,29.56,East,89,15.0,20.0,71,0.00,,,0.00,weatherlink.com 1.10,2013-03-25 17:39:00,
2013-03-25 13:54:00,41.9,33.0,29.55,ENE,70,9.0,22.0,72,0.00,,,0.00,weatherlink.com 1.10,2013-03-25 17:54:00,
2013-03-25 14:09:00,42.0,33.0,29.53,ENE,73,10.0,24.0,71,0.00,,,0.00,weatherlink.com 1.10,2013-03-25 18:09:00,
2013-03-25 14:24:00,42.4,33.0,29.52,ENE,61,12.0,27.0,70,0.00,,,0.00,weatherlink.com 1.10,2013-03-25 18:24:00,
2013-03-25 14:39:00,42.3,34.0,29.50,NE,51,12.0,24.0,71,0.00,,,0.00,weatherlink.com 1.10,2013-03-25 18:39:00,
2013-03-25 14:54:00,41.7,33.0,29.48,ENE,60,5.0,22.0,72,0.00,,,0.00,weatherlink.com 1.10,2013-03-25 18:54:00,
2013-03-25 15:09:00,41.9,32.0,29.48,ENE,77,8.0,26.0,69,0.00,,,0.00,weatherlink.com 1.10,2013-03-25 19:09:00,
2013-03-25 15:24:00,41.2,33.0,29.48,NE,54,12.0,25.0,72,0.00,,,0.00,weatherlink.com 1.10,2013-03-25 19:24:00,
2013-03-25 15:39:00,40.8,33.0,29.48,ENE,66,9.0,22.0,73,0.00,,,0.00,weatherlink.com 1.10,2013-03-25 19:39:00,
2013-03-25 15:54:00,40.6,33.0,29.47,ENE,61,10.0,18.0,74,0.00,,,0.00,weatherlink.com 1.10,2013-03-25 19:54:00,
2013-03-25 16:09:00,41.2,30.0,29.47,NE,38,9.0,22.0,65,0.00,,,0.00,weatherlink.com 1.10,2013-03-25 20:09:00,
2013-03-25 16:24:00,42.1,29.0,29.48,NE,36,7.0,26.0,59,0.00,,,0.00,weatherlink.com 1.10,2013-03-25 20:24:00,
2013-03-25 16:39:00,41.8,28.0,29.48,NE,44,8.0,24.0,58,0.00,,,0.00,weatherlink.com 1.10,2013-03-25 20:39:00,
2013-03-25 16:54:00,41.5,28.0,29.48,NE,44,19.0,26.0,60,0.00,,,0.00,weatherlink.com 1.10,2013-03-25 20:54:00,
2013-03-25 17:09:00,41.3,28.0,29.47,East,94,15.0,24.0,60,0.00,,,0.00,weatherlink.com 1.10,2013-03-25 21:09:00,
2013-03-25 17:24:00,41.1,28.0,29.47,NNE,20,9.0,26.0,60,0.00,,,0.00,weatherlink.com 1.10,2013-03-25 21:24:00,
2013-03-25 17:39:00,40.8,29.0,29.47,NNE,13,13.0,20.0,62,0.00,,,0.00,weatherlink.com 1.10,2013-03-25 21:39:00,
2013-03-25 17:54:00,40.6,29.0,29.48,NE,38,9.0,23.0,63,0.00,,,0.00,weatherlink.com 1.10,2013-03-25 21:54:00,
2013-03-25 18:09:00,40.5,29.0,29.48,NE,49,7.0,22.0,63,0.00,,,0.00,weatherlink.com 1.10,2013-03-25 22:09:00,
2013-03-25 18:24:00,40.4,29.0,29.49,NE,44,5.0,26.0,64,0.00,,,0.00,weatherlink.com 1.10,2013-03-25 22:24:00,
2013-03-25 18:39:00,40.1,29.0,29.49,NE,44,10.0,24.0,65,0.00,,,0.00,weatherlink.com 1.10,2013-03-25 22:39:00,
2013-03-25 18:54:00,40.0,29.0,29.50,East,88,9.0,29.0,65,0.00,,,0.00,weatherlink.com 1.10,2013-03-25 22:54:00,
2013-03-25 19:09:00,40.0,29.0,29.50,NNE,31,7.0,27.0,64,0.00,,,0.00,weatherlink.com 1.10,2013-03-25 23:09:00,
2013-03-25 19:24:00,39.9,29.0,29.50,NNE,23,7.0,26.0,65,0.00,,,0.00,weatherlink.com 1.10,2013-03-25 23:24:00,
2013-03-25 19:39:00,39.9,29.0,29.51,NNE,21,16.0,18.0,65,0.00,,,0.00,weatherlink.com 1.10,2013-03-25 23:39:00,
2013-03-25 19:54:00,39.8,30.0,29.51,ENE,59,5.0,22.0,67,0.00,,,0.00,weatherlink.com 1.10,2013-03-25 23:54:00,
2013-03-25 20:09:00,39.1,31.0,29.52,ENE,57,14.0,28.0,73,0.00,,,0.00,weatherlink.com 1.10,2013-03-26 00:09:00,
2013-03-25 20:24:00,36.8,32.0,29.52,ENE,57,8.0,17.0,82,0.00,,,0.00,weatherlink.com 1.10,2013-03-26 00:24:00,
2013-03-25 20:39:00,36.1,32.0,29.53,NE,53,9.0,19.0,86,0.01,,,0.01,weatherlink.com 1.10,2013-03-26 00:39:00,
2013-03-25 20:54:00,35.5,32.0,29.53,NNW,330,7.0,17.0,87,0.02,,,0.02,weatherlink.com 1.10,2013-03-26 00:54:00,
2013-03-25 21:09:00,35.3,33.0,29.53,North,355,11.0,12.0,90,0.04,,,0.04,weatherlink.com 1.10,2013-03-26 01:09:00,
2013-03-25 21:24:00,35.4,33.0,29.53,NNE,16,11.0,22.0,90,0.04,,,0.04,weatherlink.com 1.10,2013-03-26 01:24:00,
2013-03-25 21:39:00,35.4,33.0,29.53,North,11,12.0,20.0,90,0.04,,,0.05,weatherlink.com 1.10,2013-03-26 01:39:00,
2013-03-25 21:54:00,35.2,33.0,29.54,North,5,10.0,17.0,91,0.04,,,0.06,weatherlink.com 1.10,2013-03-26 01:54:00,
2013-03-25 22:09:00,35.1,33.0,29.54,North,5,8.0,16.0,91,0.03,,,0.07,weatherlink.com 1.10,2013-03-26 02:09:00,
2013-03-25 22:24:00,35.1,33.0,29.54,North,350,10.0,16.0,91,0.04,,,0.08,weatherlink.com 1.10,2013-03-26 02:24:00,
2013-03-25 22:39:00,35.2,33.0,29.54,NNE,13,12.0,18.0,91,0.03,,,0.08,weatherlink.com 1.10,2013-03-26 02:39:00,
2013-03-25 22:54:00,35.2,33.0,29.53,NNE,30,12.0,16.0,91,0.02,,,0.08,weatherlink.com 1.10,2013-03-26 02:54:00,
2013-03-25 23:09:00,35.1,33.0,29.53,NNE,24,10.0,18.0,91,0.01,,,0.08,weatherlink.com 1.10,2013-03-26 03:09:00,
2013-03-25 23:24:00,35.3,33.0,29.53,North,355,11.0,19.0,91,0.00,,,0.08,weatherlink.com 1.10,2013-03-26 03:24:00,
2013-03-25 23:39:00,35.7,33.0,29.54,NNE,22,12.0,23.0,89,0.00,,,0.08,weatherlink.com 1.10,2013-03-26 03:39:00,
2013-03-25 23:54:00,35.7,33.0,29.54,NNW,342,11.0,21.0,89,0.00,,,0.08,weatherlink.com 1.10,2013-03-26 03:54:00,